createdAt,value
2017-12-21T00:02:37.923Z,56.10
2017-12-21T00:17:34.564Z,55.94
2017-12-21T00:32:35.297Z,55.66
2017-12-21T00:47:37.306Z,55.86
2017-12-21T01:02:34.137Z,55.84
2017-12-21T01:17:34.748Z,55.47
2017-12-21T01:32:36.192Z,55.38
2017-12-21T01:47:34.642Z,55.61
2017-12-21T02:02:34.322Z,55.85
2017-12-21T02:17:34.996Z,56.29
2017-12-21T02:32:35.430Z,56.40
2017-12-21T02:47:34.385Z,55.79
2017-12-21T03:02:34.667Z,55.51
2017-12-21T03:17:38.288Z,55.79
2017-12-21T03:32:37.058Z,56.13
2017-12-21T03:47:35.003Z,56.16
2017-12-21T04:02:34.903Z,56.16
2017-12-21T04:17:34.853Z,56.07
2017-12-21T04:32:34.309Z,56.24
2017-12-21T04:47:38.216Z,56.34
2017-12-21T05:02:37.111Z,56.60
2017-12-21T05:17:34.593Z,56.72
2017-12-21T05:32:37.486Z,56.44
2017-12-21T05:47:34.396Z,56.45
2017-12-21T06:02:36.335Z,56.52
2017-12-21T06:17:34.671Z,56.55
2017-12-21T06:32:36.713Z,55.99
2017-12-21T06:47:34.606Z,55.37
2017-12-21T07:02:37.393Z,54.54
2017-12-21T07:17:37.950Z,54.58
2017-12-21T07:32:34.792Z,53.85
2017-12-21T07:47:34.703Z,53.43
2017-12-21T08:02:34.634Z,53.31
2017-12-21T08:17:36.117Z,52.80
2017-12-21T08:32:36.474Z,51.86
2017-12-21T08:47:35.901Z,51.02
2017-12-21T09:02:37.907Z,50.43
2017-12-21T09:17:36.317Z,49.44
2017-12-21T09:32:35.159Z,48.73
2017-12-21T09:47:41.129Z,48.05
2017-12-21T10:02:36.833Z,46.35
2017-12-21T10:17:36.455Z,46.22
2017-12-21T10:32:34.354Z,47.43
2017-12-21T10:47:37.375Z,48.40
2017-12-21T11:02:34.303Z,47.48
2017-12-21T11:32:36.624Z,48.54
2017-12-21T11:47:34.488Z,50.06
2017-12-21T12:02:34.183Z,50.29
2017-12-21T12:17:33.912Z,49.47
2017-12-21T12:47:34.204Z,50.58
2017-12-21T13:02:33.889Z,51.11
2017-12-21T13:17:35.001Z,50.92
2017-12-21T13:32:34.993Z,50.95
2017-12-21T13:47:36.887Z,53.04
2017-12-21T14:02:35.425Z,54.05
2017-12-21T14:17:34.634Z,54.70
2017-12-21T14:32:34.383Z,55.74
2017-12-21T14:47:34.519Z,56.73
2017-12-21T15:02:37.467Z,57.79
2017-12-21T15:17:34.953Z,57.02
2017-12-21T15:32:36.322Z,56.21
2017-12-21T15:47:34.361Z,55.72
2017-12-21T16:02:34.410Z,56.17
2017-12-21T16:17:37.070Z,57.03
2017-12-21T16:32:36.112Z,58.08
2017-12-21T16:47:34.222Z,58.17
2017-12-21T17:02:34.924Z,59.11
2017-12-21T17:17:41.055Z,58.29
2017-12-21T17:32:35.049Z,58.33
2017-12-21T17:47:34.912Z,58.77
2017-12-21T18:02:40.702Z,59.35
2017-12-21T18:17:34.357Z,59.68
2017-12-21T18:32:36.285Z,59.81
2017-12-21T18:47:36.215Z,59.78
2017-12-21T19:02:39.912Z,59.59
2017-12-21T19:17:36.637Z,59.45
2017-12-21T19:32:36.556Z,59.34
2017-12-21T19:47:38.663Z,59.67
